Time;durP1;ratioP1;P1;durP2;ratioP2;P2;SDS_P1;SDS_P2;PMS_P1;PMS_P2;Temp;Humidity;BMP_temperature;BMP_pressure;BME280_temperature;BME280_humidity;BME280_pressure;Samples;Min_cycle;Max_cycle;Signal;HPM_P1;HPM_P2
2023/01/16 00:00:50;;;;;;;3.13;2.37;;;7.40;99.90;;;;;;4956663;28;20491;-71
2023/01/16 00:03:16;;;;;;;3.47;1.87;;;7.50;99.90;;;;;;4939641;28;20441;-70
2023/01/16 00:05:42;;;;;;;3.33;1.80;;;7.60;99.90;;;;;;4939609;28;20437;-71
2023/01/16 00:08:08;;;;;;;2.83;1.67;;;7.60;99.90;;;;;;4940248;28;20228;-70
2023/01/16 00:10:34;;;;;;;2.87;1.40;;;7.60;99.90;;;;;;4939021;28;20580;-70
2023/01/16 00:12:59;;;;;;;5.17;1.50;;;7.60;99.90;;;;;;4940526;28;20215;-72
2023/01/16 00:15:25;;;;;;;9.00;1.97;;;7.60;99.90;;;;;;4943635;28;20224;-71
2023/01/16 00:17:50;;;;;;;2.70;1.53;;;7.50;99.90;;;;;;4938680;28;21797;-71
2023/01/16 00:20:17;;;;;;;2.67;1.60;;;7.70;99.90;;;;;;4947254;28;20203;-72
2023/01/16 00:22:42;;;;;;;4.40;2.30;;;7.70;99.90;;;;;;4946518;28;20237;-73
2023/01/16 00:25:08;;;;;;;2.40;2.07;;;7.60;99.90;;;;;;4942802;28;20434;-71
2023/01/16 00:27:34;;;;;;;5.70;1.90;;;7.70;99.90;;;;;;4946433;28;21030;-72
2023/01/16 00:29:59;;;;;;;2.80;1.67;;;7.70;99.90;;;;;;4943792;28;20462;-71
2023/01/16 00:32:25;;;;;;;3.07;1.50;;;7.70;99.90;;;;;;4935348;28;20839;-71
2023/01/16 00:34:51;;;;;;;3.13;1.67;;;7.70;99.90;;;;;;4943205;28;20211;-71
2023/01/16 00:37:16;;;;;;;2.70;1.40;;;7.70;99.90;;;;;;4942266;28;20210;-72
2023/01/16 00:39:42;;;;;;;4.77;2.07;;;7.70;99.90;;;;;;4942501;28;20212;-72
2023/01/16 00:42:07;;;;;;;7.90;1.57;;;7.70;99.90;;;;;;4949366;28;20175;-72
2023/01/16 00:44:33;;;;;;;2.80;1.57;;;7.70;99.90;;;;;;4938309;28;20233;-72
2023/01/16 00:46:59;;;;;;;4.10;1.80;;;7.70;99.90;;;;;;4943595;28;20277;-72
2023/01/16 00:49:25;;;;;;;5.13;1.83;;;7.60;99.90;;;;;;4948947;28;20458;-74
2023/01/16 00:51:50;;;;;;;5.70;1.70;;;7.50;99.90;;;;;;4948706;28;20533;-72
2023/01/16 00:54:16;;;;;;;5.50;1.80;;;7.40;99.90;;;;;;4949763;28;20658;-73
2023/01/16 00:56:42;;;;;;;3.13;1.60;;;7.40;99.90;;;;;;4952836;28;20182;-73
2023/01/16 00:59:07;;;;;;;8.40;1.87;;;7.40;99.90;;;;;;4948913;28;20728;-74
2023/01/16 01:01:33;;;;;;;4.13;1.77;;;7.40;99.90;;;;;;4951204;28;20204;-73
2023/01/16 01:03:59;;;;;;;3.80;1.50;;;7.40;99.90;;;;;;4950625;28;20182;-73
2023/01/16 01:06:25;;;;;;;4.23;1.53;;;7.40;99.90;;;;;;4948232;28;20257;-74
2023/01/16 01:08:50;;;;;;;3.40;1.67;;;7.30;99.90;;;;;;4949987;28;20454;-74
2023/01/16 01:11:16;;;;;;;2.30;1.40;;;7.40;99.90;;;;;;4949053;28;20841;-73
2023/01/16 01:13:42;;;;;;;5.93;2.57;;;7.40;99.90;;;;;;4946101;28;20844;-73
2023/01/16 01:16:09;;;;;;;3.67;1.47;;;7.40;99.90;;;;;;4941037;28;20221;-73
2023/01/16 01:18:35;;;;;;;4.13;1.80;;;7.40;99.90;;;;;;4953701;28;20437;-73
2023/01/16 01:21:01;;;;;;;4.80;1.90;;;7.50;99.90;;;;;;4938902;28;20457;-73
2023/01/16 01:23:27;;;;;;;8.60;1.77;;;7.50;99.90;;;;;;4940891;28;20190;-73
2023/01/16 01:25:52;;;;;;;2.47;1.70;;;7.50;99.90;;;;;;4942297;28;20892;-74
2023/01/16 01:28:19;;;;;;;4.17;1.70;;;7.50;99.90;;;;;;4938259;28;20198;-74
2023/01/16 01:30:45;;;;;;;3.70;1.80;;;7.50;99.90;;;;;;4945357;28;20202;-74
2023/01/16 01:33:10;;;;;;;3.50;1.73;;;7.60;99.90;;;;;;4939440;28;20440;-73
2023/01/16 01:35:37;;;;;;;6.50;1.83;;;7.60;99.90;;;;;;4943802;28;20543;-73
2023/01/16 01:38:03;;;;;;;8.50;1.67;;;7.50;99.90;;;;;;4938069;28;20290;-72
2023/01/16 01:40:29;;;;;;;6.80;2.03;;;7.40;99.90;;;;;;4943978;28;20460;-72
2023/01/16 01:42:54;;;;;;;4.00;1.60;;;7.50;99.90;;;;;;4944085;28;22020;-72
2023/01/16 01:45:27;;;;;;;1.90;1.50;;;7.50;99.90;;;;;;4940307;28;20203;-73
2023/01/16 01:48:08;;;;;;;3.23;1.90;;;7.50;99.90;;;;;;4937367;28;20207;-73
2023/01/16 01:50:46;;;;;;;2.40;1.50;;;7.50;99.90;;;;;;4942425;28;20688;-73
2023/01/16 01:53:18;;;;;;;6.60;1.70;;;7.50;99.90;;;;;;4945897;28;20521;-73
2023/01/16 01:55:45;;;;;;;5.00;2.07;;;7.60;99.90;;;;;;4942983;28;20560;-71
2023/01/16 01:58:20;;;;;;;2.47;1.53;;;7.60;99.90;;;;;;4947628;28;20954;-74
2023/01/16 02:00:48;;;;;;;4.57;1.60;;;7.60;99.90;;;;;;4952161;28;20637;-73
2023/01/16 02:03:25;;;;;;;5.30;1.77;;;7.50;99.90;;;;;;4948051;28;20436;-73
2023/01/16 02:05:54;;;;;;;2.87;1.47;;;7.50;99.90;;;;;;4946130;28;20429;-72
2023/01/16 02:08:23;;;;;;;2.87;1.70;;;7.50;99.90;;;;;;4951918;28;20563;-71
2023/01/16 02:10:55;;;;;;;6.90;1.80;;;7.50;99.90;;;;;;4948944;28;20457;-71
2023/01/16 02:13:21;;;;;;;5.87;1.63;;;7.60;99.90;;;;;;4949795;28;20437;-70
2023/01/16 02:21:24;;;;;;;3.10;1.37;;;7.60;99.90;;;;;;4945136;28;20440;-71
2023/01/16 02:23:53;;;;;;;1.83;1.40;;;7.50;99.90;;;;;;4944107;28;20469;-71
2023/01/16 02:26:39;;;;;;;5.60;2.40;;;7.60;99.90;;;;;;4943690;28;20450;-71
2023/01/16 02:29:20;;;;;;;4.27;1.53;;;7.70;99.90;;;;;;4943002;28;20468;-71
2023/01/16 02:31:58;;;;;;;3.70;2.00;;;7.80;99.90;;;;;;4942748;28;20448;-70
2023/01/16 02:34:32;;;;;;;2.20;1.70;;;7.80;99.90;;;;;;4944017;28;20441;-72
2023/01/16 02:37:02;;;;;;;5.23;1.70;;;7.80;99.90;;;;;;4942827;28;20448;-73
2023/01/16 02:39:46;;;;;;;4.80;1.40;;;7.70;99.90;;;;;;4952410;28;20524;-72
2023/01/16 02:42:37;;;;;;;6.10;1.70;;;7.80;99.90;;;;;;4955614;28;20441;-72
2023/01/16 02:45:05;;;;;;;3.20;1.50;;;7.80;99.90;;;;;;4956157;28;20564;-72
2023/01/16 02:47:42;;;;;;;3.30;1.60;;;7.80;99.90;;;;;;4956043;28;20429;-72
2023/01/16 02:50:32;;;;;;;3.57;1.63;;;7.80;99.90;;;;;;4955519;28;20463;-72
2023/01/16 02:53:31;;;;;;;5.17;1.70;;;7.80;99.90;;;;;;4954280;28;20418;-72
2023/01/16 02:56:08;;;;;;;2.77;1.60;;;7.90;99.90;;;;;;4954434;28;20492;-72
2023/01/16 02:58:34;;;;;;;4.03;1.90;;;7.90;99.90;;;;;;4952450;28;20961;-72
2023/01/16 03:01:00;;;;;;;3.73;1.70;;;7.90;99.90;;;;;;4952164;28;20465;-72
2023/01/16 03:03:29;;;;;;;4.70;2.10;;;7.90;99.90;;;;;;4951029;28;20838;-74
2023/01/16 03:06:00;;;;;;;2.33;1.80;;;7.90;99.90;;;;;;4949433;28;20450;-73
2023/01/16 03:08:44;;;;;;;3.87;1.50;;;8.00;99.90;;;;;;4951748;28;20450;-73
2023/01/16 03:11:25;;;;;;;3.17;1.93;;;8.00;99.90;;;;;;4945671;28;20565;-72
2023/01/16 03:14:39;;;;;;;3.83;2.47;;;8.00;99.90;;;;;;4946980;28;20434;-71
2023/01/16 03:17:13;;;;;;;3.57;1.97;;;7.90;99.90;;;;;;4933948;28;20817;-71
2023/01/16 03:20:22;;;;;;;3.00;1.70;;;8.00;99.90;;;;;;4947264;28;20458;-71
2023/01/16 03:23:06;;;;;;;5.30;2.00;;;8.00;99.90;;;;;;4951000;28;20434;-71
2023/01/16 03:25:54;;;;;;;2.30;1.53;;;8.00;99.90;;;;;;4939901;28;20450;-71
2023/01/16 03:28:43;;;;;;;3.40;1.57;;;8.00;99.90;;;;;;4946418;28;20906;-71
2023/01/16 03:31:41;;;;;;;5.17;1.90;;;8.00;99.90;;;;;;4945819;28;20470;-71
2023/01/16 03:34:13;;;;;;;3.70;1.53;;;8.00;99.90;;;;;;4941178;28;20457;-71
2023/01/16 03:36:48;;;;;;;4.43;1.60;;;8.00;99.90;;;;;;4952821;28;20450;-71
2023/01/16 03:39:16;;;;;;;4.37;1.73;;;8.00;99.90;;;;;;4949675;28;20457;-71
2023/01/16 03:41:45;;;;;;;6.80;2.37;;;8.00;99.90;;;;;;4953068;28;20450;-73
2023/01/16 03:44:24;;;;;;;5.73;2.07;;;8.00;99.90;;;;;;4951845;28;20510;-72
2023/01/16 03:46:50;;;;;;;7.10;1.57;;;7.90;99.90;;;;;;4946068;28;20457;-72
2023/01/16 03:49:21;;;;;;;4.57;1.63;;;8.10;99.90;;;;;;4948679;28;20697;-72
2023/01/16 03:51:58;;;;;;;5.27;1.83;;;8.10;99.90;;;;;;4943621;28;20564;-72
2023/01/16 03:54:39;;;;;;;4.70;2.10;;;8.10;99.90;;;;;;4948261;28;21126;-72
2023/01/16 03:57:11;;;;;;;4.50;1.70;;;8.10;99.90;;;;;;4944941;28;20453;-72
2023/01/16 03:59:39;;;;;;;5.93;1.97;;;8.10;99.90;;;;;;4947380;28;20457;-73
2023/01/16 04:02:23;;;;;;;2.30;1.43;;;8.20;99.90;;;;;;4947876;28;20456;-72
2023/01/16 04:04:55;;;;;;;3.00;1.63;;;8.20;99.90;;;;;;4947238;28;20496;-72
2023/01/16 04:07:34;;;;;;;4.80;2.20;;;8.20;99.90;;;;;;4948976;28;20520;-72
2023/01/16 04:10:04;;;;;;;1.80;1.33;;;8.10;99.90;;;;;;4948274;28;20481;-72
2023/01/16 04:12:37;;;;;;;3.63;1.77;;;8.10;99.90;;;;;;4946041;28;20972;-72
2023/01/16 04:15:07;;;;;;;7.47;1.97;;;8.20;99.90;;;;;;4947956;28;20481;-72
2023/01/16 04:17:34;;;;;;;4.23;2.30;;;8.20;99.90;;;;;;4951121;28;20445;-72
2023/01/16 04:20:00;;;;;;;2.83;1.60;;;8.30;99.90;;;;;;4944292;28;20450;-73
2023/01/16 04:22:28;;;;;;;2.80;1.50;;;8.40;99.90;;;;;;4948658;28;20437;-72
2023/01/16 04:24:57;;;;;;;6.70;1.87;;;8.40;99.90;;;;;;4944067;28;20203;-73
2023/01/16 04:27:23;;;;;;;2.63;2.07;;;8.40;99.90;;;;;;4941470;28;20513;-71
2023/01/16 04:29:48;;;;;;;5.67;1.63;;;8.40;99.90;;;;;;4940146;28;20489;-71
2023/01/16 04:32:14;;;;;;;3.00;1.70;;;8.40;99.90;;;;;;4938277;28;20588;-72
2023/01/16 04:34:40;;;;;;;3.70;1.53;;;8.30;99.90;;;;;;4940087;28;20321;-71
2023/01/16 04:37:06;;;;;;;4.53;1.80;;;8.30;99.90;;;;;;4943448;28;20229;-70
2023/01/16 04:39:32;;;;;;;7.60;1.93;;;8.30;99.90;;;;;;4947230;28;20217;-71
2023/01/16 04:41:58;;;;;;;2.00;1.70;;;8.30;99.90;;;;;;4949662;28;20436;-70
2023/01/16 04:44:24;;;;;;;6.90;1.97;;;8.30;99.90;;;;;;4952892;28;20438;-70
2023/01/16 04:46:50;;;;;;;4.33;1.43;;;8.40;99.90;;;;;;4943901;28;20197;-71
2023/01/16 04:49:16;;;;;;;4.10;1.60;;;8.40;99.90;;;;;;4947889;28;20465;-71
2023/01/16 04:51:42;;;;;;;3.77;1.70;;;8.40;99.90;;;;;;4948913;28;20452;-72
2023/01/16 04:54:12;;;;;;;5.50;1.83;;;8.50;99.90;;;;;;4952588;28;20190;-72
2023/01/16 04:56:39;;;;;;;4.17;1.97;;;8.50;99.90;;;;;;4951048;28;20485;-72
2023/01/16 04:59:05;;;;;;;2.37;1.20;;;8.50;99.90;;;;;;4946213;28;20445;-72
2023/01/16 05:01:34;;;;;;;5.33;2.20;;;8.50;99.90;;;;;;4947940;28;20198;-72
2023/01/16 05:04:01;;;;;;;6.93;1.90;;;8.60;99.90;;;;;;4949119;28;20277;-72
2023/01/16 05:06:27;;;;;;;3.80;2.20;;;8.60;99.90;;;;;;4946035;28;20445;-72
2023/01/16 05:08:52;;;;;;;4.13;2.20;;;8.60;99.90;;;;;;4949756;28;21159;-72
2023/01/16 05:11:18;;;;;;;4.70;2.77;;;8.60;99.90;;;;;;4944476;28;20956;-73
2023/01/16 05:13:43;;;;;;;3.97;2.83;;;8.60;99.90;;;;;;4942472;28;20199;-73
2023/01/16 05:16:09;;;;;;;8.13;1.90;;;8.60;99.90;;;;;;4943287;28;20206;-74
2023/01/16 05:18:35;;;;;;;2.80;1.73;;;8.50;99.90;;;;;;4938297;28;20191;-74
2023/01/16 05:21:01;;;;;;;4.87;1.87;;;8.50;99.90;;;;;;4941823;28;20202;-72
2023/01/16 05:23:27;;;;;;;2.60;1.50;;;8.50;99.90;;;;;;4943181;28;20224;-72
2023/01/16 05:25:53;;;;;;;3.57;1.60;;;8.50;99.90;;;;;;4940460;28;20449;-72
2023/01/16 05:28:19;;;;;;;3.63;1.63;;;8.50;99.90;;;;;;4949685;28;20833;-72
2023/01/16 05:30:48;;;;;;;3.63;1.63;;;8.50;99.90;;;;;;4929828;28;20520;-72
2023/01/16 05:33:13;;;;;;;2.17;1.70;;;8.40;99.90;;;;;;4951890;28;20446;-71
2023/01/16 05:35:39;;;;;;;5.83;1.97;;;8.40;99.90;;;;;;4950222;28;20804;-72
2023/01/16 05:38:05;;;;;;;4.00;1.40;;;8.40;99.90;;;;;;4951231;28;20771;-71
2023/01/16 05:40:30;;;;;;;2.43;1.60;;;8.40;99.90;;;;;;4952004;28;20228;-72
2023/01/16 05:42:56;;;;;;;2.90;1.80;;;8.40;99.90;;;;;;4950155;28;20453;-71
2023/01/16 05:45:22;;;;;;;2.60;1.43;;;8.40;99.90;;;;;;4949908;28;21279;-71
2023/01/16 05:47:47;;;;;;;7.50;2.00;;;8.30;99.90;;;;;;4950834;28;20199;-74
2023/01/16 05:50:13;;;;;;;6.33;2.13;;;8.30;99.90;;;;;;4952775;28;20407;-74
2023/01/16 05:52:39;;;;;;;6.67;3.07;;;8.30;99.90;;;;;;4947372;28;20179;-74
2023/01/16 05:55:05;;;;;;;4.17;2.50;;;8.30;99.90;;;;;;4946215;28;20228;-71
2023/01/16 05:57:31;;;;;;;4.17;2.27;;;8.20;99.90;;;;;;4942194;28;20659;-71
2023/01/16 05:59:56;;;;;;;3.90;2.00;;;8.20;99.90;;;;;;4950514;28;20462;-72
2023/01/16 06:02:22;;;;;;;5.00;1.93;;;8.20;99.90;;;;;;4955446;28;20195;-71
2023/01/16 06:04:48;;;;;;;4.30;2.40;;;8.00;99.90;;;;;;4950915;28;20214;-73
2023/01/16 06:07:14;;;;;;;2.90;1.90;;;7.90;99.90;;;;;;4951638;28;20187;-71
2023/01/16 06:09:40;;;;;;;4.23;2.33;;;7.90;99.90;;;;;;4949691;28;20487;-71
2023/01/16 06:12:09;;;;;;;3.50;1.67;;;7.80;99.90;;;;;;4952193;28;20454;-72
2023/01/16 06:14:35;;;;;;;2.97;1.90;;;7.70;99.90;;;;;;4945900;28;20450;-71
2023/01/16 06:17:01;;;;;;;2.67;1.50;;;7.70;99.90;;;;;;4951804;28;20446;-70
2023/01/16 06:19:27;;;;;;;2.30;1.60;;;7.70;99.90;;;;;;4950154;28;20218;-70
2023/01/16 06:21:52;;;;;;;3.13;2.13;;;7.70;99.90;;;;;;4943856;28;20201;-72
2023/01/16 06:24:18;;;;;;;6.47;2.00;;;7.70;99.90;;;;;;4948738;28;20194;-71
2023/01/16 06:26:43;;;;;;;3.27;1.83;;;7.70;99.90;;;;;;4946343;28;20201;-71
2023/01/16 06:29:09;;;;;;;7.17;2.17;;;7.60;99.90;;;;;;4944224;28;20297;-71
2023/01/16 06:31:35;;;;;;;2.63;1.90;;;7.60;99.90;;;;;;4945759;28;20202;-71
2023/01/16 06:34:01;;;;;;;2.60;2.10;;;7.50;99.90;;;;;;4941810;28;20446;-72
2023/01/16 06:36:27;;;;;;;2.87;1.50;;;7.50;99.90;;;;;;4946859;28;20257;-72
2023/01/16 06:38:53;;;;;;;2.60;1.77;;;7.40;99.90;;;;;;4948214;28;20186;-72
2023/01/16 06:41:19;;;;;;;2.50;1.60;;;7.50;99.90;;;;;;4955100;28;20426;-71
2023/01/16 06:43:44;;;;;;;3.57;2.10;;;7.40;99.90;;;;;;4952684;28;20426;-73
2023/01/16 06:46:10;;;;;;;3.43;2.10;;;7.40;99.90;;;;;;4955104;28;21113;-73
2023/01/16 06:48:35;;;;;;;5.03;2.40;;;7.40;99.90;;;;;;4954413;28;20190;-73
2023/01/16 06:51:01;;;;;;;6.27;2.70;;;7.40;99.90;;;;;;4951838;28;20218;-73
2023/01/16 06:53:27;;;;;;;6.50;2.27;;;7.40;99.90;;;;;;4956441;28;20186;-73
2023/01/16 06:55:53;;;;;;;9.83;3.00;;;7.40;99.90;;;;;;4950679;28;20973;-73
2023/01/16 06:58:18;;;;;;;7.07;3.20;;;7.40;99.90;;;;;;4951586;28;20195;-73
2023/01/16 07:00:44;;;;;;;10.53;2.70;;;7.40;99.90;;;;;;4948656;28;20210;-72
2023/01/16 07:03:10;;;;;;;4.23;2.27;;;7.40;99.90;;;;;;4958951;28;21511;-73
2023/01/16 07:05:36;;;;;;;9.00;2.57;;;7.40;99.90;;;;;;4949050;28;20441;-71
2023/01/16 07:08:02;;;;;;;2.83;1.80;;;7.40;99.90;;;;;;4945737;28;20450;-73
2023/01/16 07:10:28;;;;;;;2.23;1.63;;;7.30;99.90;;;;;;4949862;28;20297;-71
2023/01/16 07:12:54;;;;;;;5.80;2.47;;;7.30;99.90;;;;;;4944315;28;20445;-71
2023/01/16 07:23:46;;;;;;;3.20;1.83;;;7.50;99.90;;;;;;4940360;28;20477;-71
2023/01/16 07:26:14;;;;;;;4.10;2.00;;;7.50;99.90;;;;;;4941889;28;20886;-72
2023/01/16 07:28:40;;;;;;;4.23;2.07;;;7.50;99.90;;;;;;4946417;28;20968;-72
2023/01/16 07:31:07;;;;;;;3.77;1.90;;;7.40;99.90;;;;;;4943678;28;20464;-72
2023/01/16 07:33:33;;;;;;;2.63;1.80;;;7.50;99.90;;;;;;4945423;28;20446;-72
2023/01/16 07:35:59;;;;;;;4.47;2.13;;;7.50;99.90;;;;;;4944978;28;21224;-73
2023/01/16 07:38:24;;;;;;;3.53;1.63;;;7.50;99.90;;;;;;4946898;28;20932;-73
2023/01/16 07:40:50;;;;;;;4.00;2.37;;;7.40;99.90;;;;;;4949605;28;20209;-74
2023/01/16 07:43:16;;;;;;;3.23;2.30;;;7.40;99.90;;;;;;4947926;28;20222;-72
2023/01/16 07:45:41;;;;;;;6.30;2.80;;;7.40;99.90;;;;;;4962356;28;20233;-72
2023/01/16 07:48:07;;;;;;;5.97;3.20;;;7.40;99.90;;;;;;4949869;28;20741;-71
2023/01/16 07:50:33;;;;;;;3.90;2.30;;;7.40;99.90;;;;;;4953310;28;20701;-70
2023/01/16 07:52:58;;;;;;;4.20;2.50;;;7.30;99.90;;;;;;4940956;28;20197;-73
2023/01/16 07:55:24;;;;;;;6.40;3.00;;;7.40;99.90;;;;;;4941458;28;20305;-72
2023/01/16 07:57:50;;;;;;;4.00;2.60;;;7.40;99.90;;;;;;4946349;28;20190;-72
2023/01/16 08:00:16;;;;;;;6.33;2.23;;;7.50;99.90;;;;;;4948032;28;20285;-70
2023/01/16 08:02:42;;;;;;;5.30;2.50;;;7.50;99.90;;;;;;4938506;28;20195;-70
2023/01/16 08:05:09;;;;;;;6.03;2.70;;;7.60;99.90;;;;;;4941035;28;20465;-71
2023/01/16 08:07:35;;;;;;;5.10;2.90;;;7.60;99.90;;;;;;4949241;28;21022;-73
2023/01/16 08:10:00;;;;;;;4.57;2.83;;;7.70;99.90;;;;;;4941359;28;20561;-72
2023/01/16 08:12:26;;;;;;;6.77;2.20;;;7.70;99.90;;;;;;4945764;28;20525;-72
2023/01/16 08:14:51;;;;;;;3.73;2.10;;;7.80;99.90;;;;;;4933314;28;20226;-73
2023/01/16 08:17:17;;;;;;;3.10;1.90;;;7.80;99.90;;;;;;4942048;28;20275;-73
2023/01/16 08:19:42;;;;;;;4.27;2.03;;;7.80;99.90;;;;;;4940608;28;20217;-73
2023/01/16 08:22:08;;;;;;;3.70;1.70;;;7.90;99.90;;;;;;4941544;28;20197;-72
2023/01/16 08:24:34;;;;;;;3.47;1.70;;;7.90;99.90;;;;;;4944246;28;20864;-72
2023/01/16 08:26:59;;;;;;;6.07;2.97;;;7.90;99.90;;;;;;4948361;28;20191;-72
2023/01/16 08:29:25;;;;;;;4.83;2.60;;;8.00;99.90;;;;;;4949537;28;21117;-72
2023/01/16 08:31:51;;;;;;;4.47;2.40;;;8.00;99.90;;;;;;4939278;28;20198;-71
2023/01/16 08:34:17;;;;;;;4.63;2.37;;;7.90;99.90;;;;;;4946313;28;20441;-71
2023/01/16 08:36:42;;;;;;;5.40;2.30;;;8.00;99.90;;;;;;4942773;28;20777;-71
2023/01/16 08:39:12;;;;;;;6.27;2.30;;;7.90;99.90;;;;;;4949906;28;20194;-71
2023/01/16 08:52:48;;;;;;;1.93;1.30;;;8.00;99.90;;;;;;4951937;28;20480;-71
2023/01/16 08:55:14;;;;;;;4.70;1.73;;;8.10;99.90;;;;;;4947107;28;20478;-71
2023/01/16 08:57:40;;;;;;;2.77;1.43;;;8.20;99.90;;;;;;4951026;28;20267;-71
2023/01/16 09:00:07;;;;;;;2.80;1.27;;;8.30;99.90;;;;;;4951697;28;20707;-72
2023/01/16 09:02:35;;;;;;;1.60;1.20;;;8.30;99.90;;;;;;4950235;28;20210;-71
2023/01/16 09:05:01;;;;;;;2.03;1.30;;;8.40;99.90;;;;;;4947675;28;20554;-71
2023/01/16 09:07:28;;;;;;;2.47;1.40;;;8.50;99.90;;;;;;4951929;28;20891;-71
2023/01/16 09:09:54;;;;;;;2.70;1.70;;;8.60;99.90;;;;;;4951487;28;20302;-72
2023/01/16 09:15:05;;;;;;;3.40;2.27;;;8.70;99.90;;;;;;4946976;28;20221;-71
2023/01/16 09:17:31;;;;;;;3.03;2.10;;;8.80;99.90;;;;;;4943280;28;20516;-72
2023/01/16 09:19:56;;;;;;;2.77;2.30;;;8.80;99.90;;;;;;4938277;28;20491;-73
2023/01/16 09:22:22;;;;;;;3.10;2.20;;;8.90;99.90;;;;;;4940256;28;20210;-73
2023/01/16 09:24:48;;;;;;;2.10;1.70;;;8.90;99.90;;;;;;4941236;28;20217;-68
2023/01/16 09:27:13;;;;;;;3.50;2.10;;;8.90;99.90;;;;;;4944784;28;20454;-68
2023/01/16 09:29:40;;;;;;;1.70;1.50;;;8.90;99.90;;;;;;4942913;28;20214;-68
2023/01/16 09:32:08;;;;;;;2.23;1.70;;;9.00;99.90;;;;;;4946472;28;20281;-69
2023/01/16 09:34:37;;;;;;;3.27;1.50;;;9.00;99.90;;;;;;4937549;28;21247;-70
2023/01/16 09:37:04;;;;;;;3.03;1.60;;;8.90;99.90;;;;;;4924267;28;20452;-68
2023/01/16 09:39:30;;;;;;;4.87;1.70;;;9.10;99.90;;;;;;4941957;28;20855;-69
2023/01/16 09:45:32;;;;;;;1.70;1.50;;;9.00;99.90;;;;;;4943218;28;20343;-68
2023/01/16 09:48:29;;;;;;;2.37;1.57;;;9.10;99.90;;;;;;4942015;28;20448;-69
2023/01/16 09:51:00;;;;;;;5.23;1.40;;;9.20;99.90;;;;;;4938306;28;20553;-69
2023/01/16 09:59:36;;;;;;;6.40;4.37;;;9.20;99.90;;;;;;4943960;28;20463;-68
2023/01/16 10:02:17;;;;;;;8.60;3.67;;;9.30;99.90;;;;;;4937361;28;20445;-70
2023/01/16 10:04:45;;;;;;;4.93;2.90;;;9.20;99.90;;;;;;4938722;28;20441;-69
2023/01/16 10:07:44;;;;;;;2.30;1.90;;;9.20;99.90;;;;;;4939955;28;20453;-71
2023/01/16 10:10:15;;;;;;;5.50;3.30;;;9.20;99.90;;;;;;4939350;28;20466;-69
2023/01/16 10:12:48;;;;;;;3.47;2.20;;;9.30;99.90;;;;;;4939193;28;21821;-68
2023/01/16 10:15:36;;;;;;;4.30;3.30;;;9.30;99.90;;;;;;4944936;28;20998;-70
2023/01/16 10:18:27;;;;;;;3.03;2.10;;;9.40;99.90;;;;;;4940764;28;20451;-70
2023/01/16 10:21:22;;;;;;;3.90;2.53;;;9.20;99.90;;;;;;4943631;28;20485;-69
2023/01/16 10:23:56;;;;;;;2.37;1.60;;;9.20;99.90;;;;;;4946365;28;20468;-68
2023/01/16 10:26:37;;;;;;;1.93;1.60;;;9.20;99.90;;;;;;4944073;28;20441;-69
2023/01/16 10:29:35;;;;;;;3.60;2.30;;;9.20;99.90;;;;;;4940370;28;21076;-70
2023/01/16 10:32:24;;;;;;;2.83;1.90;;;9.40;99.90;;;;;;4945014;28;20540;-70
2023/01/16 10:35:05;;;;;;;2.10;1.60;;;9.40;99.90;;;;;;4952284;28;21035;-69
2023/01/16 10:37:33;;;;;;;2.10;1.60;;;9.40;99.90;;;;;;4951550;28;20445;-69
2023/01/16 10:40:00;;;;;;;4.10;1.67;;;9.50;99.90;;;;;;4954871;28;20465;-69
2023/01/16 10:51:00;;;;;;;5.40;2.37;;;9.60;99.90;;;;;;4953875;28;20471;-69
2023/01/16 10:53:26;;;;;;;1.93;1.50;;;9.40;99.90;;;;;;4960048;28;20465;-70
2023/01/16 10:55:53;;;;;;;1.80;1.30;;;9.40;99.90;;;;;;4954777;28;20466;-70
2023/01/16 10:58:28;;;;;;;1.70;1.30;;;9.40;99.90;;;;;;4956729;28;20442;-71
2023/01/16 11:00:59;;;;;;;3.53;1.30;;;9.40;99.90;;;;;;4955494;28;20564;-71
2023/01/16 11:03:34;;;;;;;2.00;1.60;;;9.40;99.90;;;;;;4956503;28;20426;-70
2023/01/16 11:06:30;;;;;;;1.60;1.40;;;9.20;99.90;;;;;;4954548;28;20445;-69
2023/01/16 11:09:03;;;;;;;2.13;1.50;;;9.30;99.90;;;;;;4946834;28;20520;-69
2023/01/16 11:20:28;;;;;;;2.07;1.70;;;9.70;99.90;;;;;;4941085;28;20524;-69
2023/01/16 11:22:59;;;;;;;1.53;1.23;;;9.80;99.90;;;;;;4948562;28;20453;-69
2023/01/16 11:25:29;;;;;;;2.00;1.70;;;9.80;99.90;;;;;;4940560;28;20444;-70
2023/01/16 11:28:02;;;;;;;1.93;1.50;;;9.80;99.90;;;;;;4934166;28;20446;-70
2023/01/16 11:30:31;;;;;;;2.63;1.50;;;9.70;99.90;;;;;;4944362;28;20460;-70
2023/01/16 11:32:57;;;;;;;2.37;1.37;;;9.90;99.90;;;;;;4947065;28;20457;-71
2023/01/16 11:35:35;;;;;;;2.00;1.50;;;9.90;99.90;;;;;;4943460;28;20484;-71
2023/01/16 11:38:05;;;;;;;2.00;1.70;;;9.90;99.90;;;;;;4937061;28;20444;-68
2023/01/16 11:40:36;;;;;;;4.80;2.93;;;9.90;99.90;;;;;;4939454;28;20532;-69
2023/01/16 11:46:03;;;;;;;1.90;1.43;;;10.10;99.90;;;;;;4934191;28;20652;-70
2023/01/16 11:48:53;;;;;;;1.60;1.20;;;10.20;99.90;;;;;;4943844;28;20453;-70
2023/01/16 11:51:23;;;;;;;1.70;1.40;;;10.20;99.90;;;;;;4942242;28;20463;-69
2023/01/16 11:53:50;;;;;;;1.80;1.50;;;10.20;99.90;;;;;;4942332;28;20474;-71
2023/01/16 11:56:24;;;;;;;1.70;1.30;;;10.30;99.90;;;;;;4943102;28;20458;-69
2023/01/16 11:59:12;;;;;;;1.70;1.33;;;10.20;99.90;;;;;;4934896;28;20438;-68
2023/01/16 12:07:53;;;;;;;1.60;1.20;;;10.00;99.90;;;;;;4941050;28;20445;-68
2023/01/16 12:10:40;;;;;;;1.50;1.23;;;9.80;99.90;;;;;;4942944;28;20688;-69
2023/01/16 12:16:33;;;;;;;1.60;1.40;;;9.90;99.90;;;;;;4939658;28;20477;-70
2023/01/16 12:19:17;;;;;;;2.80;1.30;;;9.90;99.90;;;;;;4937686;28;20452;-68
2023/01/16 12:22:01;;;;;;;1.60;1.30;;;10.10;99.90;;;;;;4941257;28;20437;-69
2023/01/16 12:24:50;;;;;;;1.87;1.33;;;10.20;99.90;;;;;;4947939;28;20457;-69
2023/01/16 12:27:42;;;;;;;1.50;1.30;;;10.20;99.90;;;;;;4943016;28;20449;-71
2023/01/16 12:31:00;;;;;;;1.50;1.20;;;10.30;99.90;;;;;;4942615;28;20517;-69
2023/01/16 12:33:44;;;;;;;1.53;1.30;;;10.50;99.90;;;;;;4950291;28;20434;-69
2023/01/16 12:36:30;;;;;;;1.50;1.20;;;10.50;99.90;;;;;;4943625;28;20489;-70
2023/01/16 12:39:26;;;;;;;1.90;1.30;;;10.70;99.90;;;;;;4947311;28;20901;-69
2023/01/16 12:44:59;;;;;;;1.70;1.40;;;10.80;99.90;;;;;;4948549;28;21056;-67
2023/01/16 12:47:42;;;;;;;1.90;1.50;;;10.50;99.90;;;;;;4945763;28;20472;-68
2023/01/16 12:50:18;;;;;;;2.30;1.47;;;10.80;99.90;;;;;;4945809;28;20444;-69
2023/01/16 12:52:58;;;;;;;1.60;1.40;;;10.80;99.90;;;;;;4951825;28;20477;-68
2023/01/16 12:55:47;;;;;;;1.83;1.30;;;10.90;99.90;;;;;;4964350;28;20469;-69
2023/01/16 12:58:27;;;;;;;3.20;1.33;;;10.80;99.90;;;;;;4946346;28;20945;-70
2023/01/16 13:01:17;;;;;;;1.50;1.20;;;10.70;99.90;;;;;;4951230;28;20912;-71
2023/01/16 13:03:57;;;;;;;1.90;1.43;;;10.70;99.90;;;;;;4950589;28;20472;-70
2023/01/16 13:06:49;;;;;;;1.50;1.20;;;10.60;99.90;;;;;;4956437;28;20442;-70
2023/01/16 13:09:38;;;;;;;2.37;1.27;;;10.60;99.90;;;;;;4947533;28;20470;-70
2023/01/16 13:15:22;;;;;;;1.90;1.30;;;10.50;99.90;;;;;;4951889;28;20715;-69
2023/01/16 13:17:58;;;;;;;1.50;1.20;;;10.40;99.90;;;;;;4948828;28;20447;-72
2023/01/16 13:20:25;;;;;;;3.00;1.30;;;10.20;99.90;;;;;;4946909;28;20544;-68
2023/01/16 13:23:14;;;;;;;1.50;1.30;;;10.20;99.90;;;;;;4948545;28;20451;-67
2023/01/16 13:25:45;;;;;;;2.17;1.33;;;10.20;99.90;;;;;;4953391;28;20470;-70
2023/01/16 13:28:11;;;;;;;1.70;1.30;;;10.20;99.90;;;;;;4949151;28;20453;-70
2023/01/16 13:30:36;;;;;;;1.40;1.20;;;10.20;99.90;;;;;;4946729;28;20470;-70
2023/01/16 13:33:09;;;;;;;1.50;1.20;;;10.20;99.90;;;;;;4940020;28;20555;-69
2023/01/16 13:36:03;;;;;;;2.37;1.30;;;10.10;99.90;;;;;;4951695;28;20234;-69
2023/01/16 13:38:46;;;;;;;1.70;1.30;;;10.20;99.90;;;;;;4949008;28;20470;-70
2023/01/16 13:41:37;;;;;;;1.60;1.30;;;10.20;99.90;;;;;;4948691;28;20446;-69
2023/01/16 13:47:07;;;;;;;1.80;1.40;;;10.30;99.90;;;;;;4948981;28;20446;-68
2023/01/16 13:49:33;;;;;;;1.93;1.40;;;10.20;99.90;;;;;;4951737;28;20568;-69
2023/01/16 13:52:01;;;;;;;1.80;1.30;;;10.10;99.90;;;;;;4949855;28;20600;-69
2023/01/16 13:54:37;;;;;;;1.60;1.30;;;10.10;99.90;;;;;;4953959;28;20187;-68
2023/01/16 13:57:14;;;;;;;1.70;1.40;;;10.20;99.90;;;;;;4952483;28;20444;-70
2023/01/16 14:00:10;;;;;;;1.90;1.40;;;10.20;99.90;;;;;;4955397;28;20461;-69
2023/01/16 14:02:36;;;;;;;1.73;1.40;;;10.30;99.90;;;;;;4948441;28;20438;-69
2023/01/16 14:05:04;;;;;;;1.90;1.67;;;10.20;99.90;;;;;;4958773;28;21059;-70
2023/01/16 14:10:58;;;;;;;2.40;1.60;;;10.20;99.90;;;;;;4957926;28;20467;-70
2023/01/16 14:13:37;;;;;;;1.67;1.37;;;10.10;99.90;;;;;;4956259;28;20461;-70
2023/01/16 14:16:32;;;;;;;2.17;1.50;;;10.20;99.90;;;;;;4950650;28;20548;-68
2023/01/16 14:19:19;;;;;;;2.93;1.90;;;10.10;99.90;;;;;;4949124;28;20480;-70
2023/01/16 14:24:41;;;;;;;2.23;1.30;;;10.10;99.90;;;;;;4950057;28;20445;-71
2023/01/16 14:27:12;;;;;;;2.33;1.50;;;10.10;99.90;;;;;;4955645;28;20446;-69
2023/01/16 14:29:55;;;;;;;1.90;1.60;;;10.20;99.90;;;;;;4953520;28;20464;-71
2023/01/16 14:32:27;;;;;;;1.90;1.63;;;10.00;99.90;;;;;;4953305;28;20436;-70
2023/01/16 14:35:10;;;;;;;1.50;1.30;;;10.10;99.90;;;;;;4951615;28;21255;-69
2023/01/16 14:37:42;;;;;;;1.50;1.23;;;10.10;99.90;;;;;;4951813;28;21030;-69
2023/01/16 14:40:11;;;;;;;2.03;1.23;;;9.90;99.90;;;;;;4970897;28;21059;-70